Terminal Aerodrome Forecast
Issued by NWS Sioux Falls, SD

Home | Current Version | Previous Version | Text Only | Print | Product List | Glossary Off
Versions: 1 2 3 4 5 6 7 8 9 10 11 12 13 14 15 16

000
FTUS43 KFSD 042034 AAC
TAFFSD
TAF AMD
KFSD 042034Z 0421/0518 32011KT P6SM FEW020
     FM042200 31008KT P6SM FEW030
     FM050100 VRB03KT P6SM SKC
     FM051000 16005KT P6SM BKN120
     FM051600 17010KT P6SM OVC050=

USA.gov is the U.S. government's official web portal to all federal, state and local government web resources and services.